Main page
METAR-TAF:

METAR-TAF

Airports :

Târgu Mureș International Airport

Târgu Mureş, Romania

latitude: 46-32N, longitude: 024-32E, elevation: 308 m

Current weather observation

The report was made 48 minutes ago, at 06:30 UTC
Wind 3 kt from the East/Northeast, varying between Northeast and East/Southeast
Temperature 23°C
Humidity 73%
Pressure 1014 hPa
Visibility 10 km or more
Few clouds at a height of 1400 ft

METAR: LRTM 300630Z 07003KT 050V110 9999 FEW014 23/18 Q1014

Time: 10:18 (07:18 UTC)

Forecast

The report was made 2 hours and 18 minutes ago, at 05:00 UTC
Forecast valid from 30 at 06 UTC to 30 at 15 UTC
Wind 4 kt from variable directions
Visibility 10 km or more
no clouds below 1500 m and no cumulonimbus

TAF: LRTM 300500Z 3006/3015 VRB04KT CAVOK

Weather observations and forecasts of more than 4000 airports (METAR and TAF reports).

The available stations are represented by yellow and red dots on the map.

Hover mouse over dot to see the name of the station.

Then click to see weather observations and forecasts.

To change the map : click on the green buttons with a black cross to zoom in, on the green button with a dash to zoom out, or on the green arrows for adjacent maps.


METAR-TAF: